Terminal Aerodrome Forecast
Issued by NWS

Home | Current Version | Previous Version | Text Only | Print | Product List | Glossary Off
Versions: 1 2 3 4 5 6 7 8 9 10 11 12 13 14 15 16 17 18 19

000
FTUS43 KBIS 220924 AAA
TAFDIK
TAF AMD
KDIK 220924Z 2209/2306 02014G20KT P6SM VCSH BKN060 OVC080
     FM221500 03016G24KT P6SM VCTS BKN060CB OVC140
     FM221800 02018G24KT P6SM VCTS BKN030CB OVC130
     FM222100 01015KT P6SM OVC025
     FM230300 36009KT P6SM OVC020=

USA.gov is the U.S. government's official web portal to all federal, state and local government web resources and services.